createdAt,value
2023-06-11T00:00:12.720Z,27.24
2023-06-11T00:03:00.413Z,27.30
2023-06-11T00:05:29.225Z,27.35
2023-06-11T00:08:01.746Z,27.59
2023-06-11T00:10:29.286Z,27.57
2023-06-11T00:12:56.836Z,27.53
2023-06-11T00:15:27.049Z,27.67
2023-06-11T00:17:54.707Z,27.68
2023-06-11T00:20:23.694Z,27.87
2023-06-11T00:22:52.708Z,27.88
2023-06-11T00:25:20.274Z,27.87
2023-06-11T00:27:47.873Z,27.85
2023-06-11T00:30:17.702Z,28.02
2023-06-11T00:32:46.958Z,28.13
2023-06-11T00:35:14.904Z,28.22
2023-06-11T00:37:44.132Z,28.21
2023-06-11T00:40:12.087Z,28.19
2023-06-11T00:42:41.861Z,28.34
2023-06-11T00:45:10.162Z,28.32
2023-06-11T00:47:40.207Z,28.32
2023-06-11T00:50:09.752Z,28.52
2023-06-11T00:52:37.402Z,28.45
2023-06-11T00:55:05.325Z,28.54
2023-06-11T00:57:32.862Z,28.65
2023-06-11T01:00:01.680Z,28.68
2023-06-11T01:02:44.413Z,28.73
2023-06-11T01:05:18.882Z,28.80
2023-06-11T01:07:51.486Z,28.78
2023-06-11T01:10:19.685Z,28.90
2023-06-11T01:12:48.814Z,28.98
2023-06-11T01:15:16.403Z,28.85
2023-06-11T01:17:57.169Z,29.04
2023-06-11T01:20:43.135Z,29.14
2023-06-11T01:23:32.755Z,29.15
2023-06-11T01:26:22.310Z,29.33
2023-06-11T01:28:55.721Z,29.42
2023-06-11T01:31:27.034Z,29.48
2023-06-11T01:33:54.676Z,29.30
2023-06-11T01:36:25.634Z,29.52
2023-06-11T01:38:55.698Z,29.62
2023-06-11T01:41:23.227Z,29.60
2023-06-11T01:43:50.686Z,29.63
2023-06-11T01:46:18.211Z,29.74
2023-06-11T01:48:45.990Z,29.80
2023-06-11T01:51:16.633Z,29.76
2023-06-11T01:53:44.751Z,29.86
2023-06-11T01:56:12.252Z,29.87
2023-06-11T01:58:41.464Z,29.88
2023-06-11T02:01:09.322Z,29.92
2023-06-11T02:03:36.903Z,29.85
2023-06-11T02:06:04.726Z,30.08
2023-06-11T02:08:32.224Z,30.10
2023-06-11T02:10:59.757Z,30.19
2023-06-11T02:13:31.838Z,30.39
2023-06-11T02:16:00.022Z,30.41
2023-06-11T02:18:27.711Z,30.48
2023-06-11T02:20:55.314Z,30.32
2023-06-11T02:23:22.844Z,30.47
2023-06-11T02:25:50.548Z,30.47
2023-06-11T02:28:18.496Z,30.46
2023-06-11T02:30:46.605Z,30.62
2023-06-11T02:33:14.316Z,30.73
2023-06-11T02:35:41.959Z,30.65
2023-06-11T02:38:09.472Z,30.74
2023-06-11T02:40:37.052Z,30.72
2023-06-11T02:43:04.612Z,30.71
2023-06-11T02:45:32.230Z,30.77
2023-06-11T02:47:59.794Z,30.79
2023-06-11T02:50:27.375Z,30.90
2023-06-11T02:52:54.910Z,31.02
2023-06-11T02:55:22.527Z,30.98
2023-06-11T02:57:50.334Z,31.02
2023-06-11T03:00:17.907Z,31.13
2023-06-11T03:02:45.726Z,31.16
2023-06-11T03:05:13.592Z,31.20
2023-06-11T03:07:41.767Z,31.19
2023-06-11T03:10:10.173Z,31.40
2023-06-11T03:12:37.717Z,31.30
2023-06-11T03:15:06.878Z,31.35
2023-06-11T03:17:34.504Z,31.42
2023-06-11T03:20:02.592Z,31.39
2023-06-11T03:22:30.223Z,31.29
2023-06-11T03:24:57.771Z,31.31
2023-06-11T03:27:25.363Z,31.43
2023-06-11T03:29:52.900Z,31.52
2023-06-11T03:32:20.529Z,31.45
2023-06-11T03:34:48.207Z,31.43
2023-06-11T03:37:15.766Z,31.46
2023-06-11T03:39:44.272Z,31.64
2023-06-11T03:42:11.907Z,31.68
2023-06-11T03:44:39.515Z,31.63
2023-06-11T03:47:07.392Z,31.62
2023-06-11T03:49:35.009Z,31.68
2023-06-11T03:52:02.834Z,31.62
2023-06-11T03:54:31.732Z,31.63
2023-06-11T03:56:59.345Z,31.68
2023-06-11T03:59:26.917Z,31.73
2023-06-11T04:01:54.494Z,31.84
2023-06-11T04:04:22.047Z,31.60
2023-06-11T04:06:50.056Z,31.70
2023-06-11T04:09:17.584Z,31.82
2023-06-11T04:11:45.485Z,31.68
2023-06-11T04:14:13.021Z,31.75
2023-06-11T04:16:40.773Z,31.73
2023-06-11T04:19:08.649Z,31.73
2023-06-11T04:21:37.233Z,31.79
2023-06-11T04:24:08.354Z,31.67
2023-06-11T04:26:38.195Z,31.66
2023-06-11T04:29:05.821Z,31.72
2023-06-11T04:31:33.598Z,31.74
2023-06-11T04:34:04.406Z,31.90
2023-06-11T04:36:32.505Z,31.66
2023-06-11T04:39:04.838Z,31.80
2023-06-11T04:41:33.399Z,31.77
2023-06-11T04:44:01.971Z,31.67
2023-06-11T04:46:29.606Z,31.94
2023-06-11T04:49:05.440Z,31.82
2023-06-11T04:51:34.515Z,31.69
2023-06-11T04:54:08.582Z,31.81
2023-06-11T04:56:36.646Z,31.82
2023-06-11T04:59:06.388Z,31.92
2023-06-11T05:01:34.080Z,31.78
2023-06-11T05:04:01.643Z,31.88
2023-06-11T05:06:30.875Z,31.90
2023-06-11T05:08:58.492Z,31.97
2023-06-11T05:11:27.231Z,31.97
2023-06-11T05:13:54.893Z,32.11
2023-06-11T05:16:27.321Z,31.95
2023-06-11T05:18:55.383Z,31.90
2023-06-11T05:21:22.910Z,31.84
2023-06-11T05:23:51.403Z,31.81
2023-06-11T05:26:20.279Z,31.87
2023-06-11T05:28:48.102Z,31.91
2023-06-11T05:31:15.691Z,32.00
2023-06-11T05:33:43.210Z,31.77
2023-06-11T05:36:10.778Z,31.98
2023-06-11T05:38:38.522Z,31.92
2023-06-11T05:41:06.106Z,31.87
2023-06-11T05:43:33.734Z,32.00
2023-06-11T05:46:01.291Z,31.82
2023-06-11T05:48:30.122Z,31.92
2023-06-11T05:50:57.779Z,31.96
2023-06-11T05:53:25.468Z,31.87
2023-06-11T05:55:55.410Z,31.86
2023-06-11T05:58:23.618Z,31.73
2023-06-11T06:00:52.740Z,31.78
2023-06-11T06:03:20.923Z,31.78
2023-06-11T06:05:48.630Z,31.63
2023-06-11T06:08:16.269Z,31.72
2023-06-11T06:10:43.779Z,31.66
2023-06-11T06:13:11.315Z,31.70
2023-06-11T06:15:38.840Z,31.76
2023-06-11T06:18:06.713Z,31.60
2023-06-11T06:20:34.367Z,31.54
2023-06-11T06:23:01.944Z,31.47
2023-06-11T06:25:29.496Z,31.40
2023-06-11T06:27:57.038Z,31.57
2023-06-11T06:30:24.570Z,31.53
2023-06-11T06:32:52.111Z,31.34
2023-06-11T06:35:19.670Z,31.33
2023-06-11T06:37:47.296Z,31.28
2023-06-11T06:40:14.881Z,31.20
2023-06-11T06:42:42.453Z,31.26
2023-06-11T06:45:10.721Z,31.17
2023-06-11T06:47:38.618Z,31.07
2023-06-11T06:50:07.395Z,31.18
2023-06-11T06:52:35.559Z,31.10
2023-06-11T06:55:03.298Z,30.91
2023-06-11T06:57:31.475Z,30.93
2023-06-11T06:59:59.754Z,31.02
2023-06-11T07:02:27.444Z,30.95
2023-06-11T07:04:55.272Z,30.86
2023-06-11T07:07:26.439Z,30.88
2023-06-11T07:09:54.152Z,30.73
2023-06-11T07:12:22.250Z,30.84
2023-06-11T07:14:49.777Z,30.61
2023-06-11T07:17:19.553Z,30.62
2023-06-11T07:19:47.347Z,30.65
2023-06-11T07:22:15.152Z,30.75
2023-06-11T07:24:47.647Z,30.60
2023-06-11T07:27:15.908Z,30.64
2023-06-11T07:29:43.658Z,30.68
2023-06-11T07:32:11.313Z,30.53
2023-06-11T07:34:41.090Z,30.44
2023-06-11T07:37:09.569Z,30.34
2023-06-11T07:39:37.250Z,30.50
2023-06-11T07:42:06.448Z,30.32
2023-06-11T07:44:34.235Z,30.38
2023-06-11T07:47:02.801Z,30.33
2023-06-11T07:49:30.762Z,30.55
2023-06-11T07:51:58.308Z,30.38
2023-06-11T07:54:25.822Z,30.39
2023-06-11T07:56:53.395Z,30.37
2023-06-11T07:59:20.934Z,30.11
2023-06-11T08:01:48.609Z,30.03
2023-06-11T08:04:16.264Z,30.00
2023-06-11T08:06:45.837Z,29.93
2023-06-11T08:09:13.395Z,29.82
2023-06-11T08:11:42.524Z,29.79
2023-06-11T08:14:10.288Z,29.49
2023-06-11T08:16:37.937Z,29.53
2023-06-11T08:19:05.560Z,29.43
2023-06-11T08:21:33.052Z,29.28
2023-06-11T08:24:01.003Z,29.13
2023-06-11T08:26:30.220Z,29.06
2023-06-11T08:28:57.962Z,29.11
2023-06-11T08:31:28.626Z,29.01
2023-06-11T08:33:56.270Z,28.73
2023-06-11T08:36:23.917Z,28.67
2023-06-11T08:38:51.551Z,28.69
2023-06-11T08:41:20.375Z,28.54
2023-06-11T08:43:48.053Z,28.36
2023-06-11T08:46:16.228Z,28.28
2023-06-11T08:48:45.661Z,28.07
2023-06-11T08:51:14.076Z,28.08
2023-06-11T08:53:42.537Z,28.20
2023-06-11T08:56:10.339Z,28.02
2023-06-11T08:58:39.083Z,27.83
2023-06-11T09:01:12.372Z,27.61
2023-06-11T09:03:40.004Z,27.63
2023-06-11T09:06:08.399Z,27.56
2023-06-11T09:08:35.982Z,27.47
2023-06-11T09:11:07.090Z,27.32
2023-06-11T09:13:42.142Z,27.24
2023-06-11T09:16:09.840Z,27.15
2023-06-11T09:18:37.457Z,27.00
2023-06-11T09:21:05.132Z,26.88
2023-06-11T09:23:35.610Z,26.77
2023-06-11T09:26:03.891Z,26.70
2023-06-11T09:28:36.051Z,26.81
2023-06-11T09:31:05.397Z,26.71
2023-06-11T09:33:33.838Z,26.46
2023-06-11T09:36:01.926Z,26.32
2023-06-11T09:38:34.983Z,26.38
2023-06-11T09:41:07.411Z,26.26
2023-06-11T09:43:36.542Z,26.10
2023-06-11T09:46:04.179Z,25.90
2023-06-11T09:48:32.456Z,25.89
2023-06-11T09:51:03.551Z,26.01
2023-06-11T09:53:35.499Z,25.70
2023-06-11T09:56:11.601Z,25.67
2023-06-11T09:58:40.870Z,25.42
2023-06-11T10:01:08.961Z,25.26
2023-06-11T10:03:36.841Z,25.05
2023-06-11T10:06:11.841Z,24.85
2023-06-11T10:08:42.028Z,24.78
2023-06-11T10:11:10.285Z,24.70
2023-06-11T10:13:38.909Z,24.49
2023-06-11T10:16:12.778Z,24.37
2023-06-11T10:18:40.488Z,24.38
2023-06-11T10:21:08.279Z,24.27
2023-06-11T10:23:43.425Z,24.09
2023-06-11T10:26:11.689Z,23.78
2023-06-11T10:28:56.108Z,23.49
2023-06-11T10:31:27.775Z,23.44
2023-06-11T10:34:03.729Z,23.31
2023-06-11T10:36:36.949Z,23.18
2023-06-11T10:39:10.509Z,22.87
2023-06-11T10:41:43.675Z,22.65
2023-06-11T10:44:11.824Z,22.56
2023-06-11T10:46:49.012Z,22.52
2023-06-11T10:49:16.801Z,22.32
2023-06-11T10:51:44.652Z,22.14
2023-06-11T10:54:12.267Z,21.98
2023-06-11T10:56:39.814Z,22.08
2023-06-11T10:59:11.077Z,21.81
2023-06-11T11:01:41.934Z,21.64
2023-06-11T11:04:09.650Z,21.37
2023-06-11T11:06:39.665Z,21.18
2023-06-11T11:09:07.299Z,20.93
2023-06-11T11:11:35.212Z,20.67
2023-06-11T11:14:04.709Z,20.75
2023-06-11T11:16:32.408Z,20.61
2023-06-11T11:19:00.583Z,20.47
2023-06-11T11:21:30.168Z,20.30
2023-06-11T11:23:57.894Z,20.07
2023-06-11T11:26:26.839Z,19.82
2023-06-11T11:28:54.554Z,19.60
2023-06-11T11:31:22.602Z,19.46
2023-06-11T11:33:51.416Z,19.56
2023-06-11T11:36:19.377Z,19.05
2023-06-11T11:38:48.312Z,19.02
2023-06-11T11:41:15.949Z,18.83
2023-06-11T11:43:45.786Z,18.62
2023-06-11T11:46:29.464Z,18.44
2023-06-11T11:48:57.405Z,18.24
2023-06-11T11:51:26.396Z,18.06
2023-06-11T11:53:54.013Z,17.87
2023-06-11T11:56:21.528Z,17.78
2023-06-11T11:58:52.589Z,17.37
2023-06-11T12:01:27.681Z,17.42
2023-06-11T12:04:02.205Z,17.17
2023-06-11T12:06:34.129Z,17.07
2023-06-11T12:09:01.742Z,16.96
2023-06-11T12:11:32.042Z,16.64
2023-06-11T12:13:59.631Z,16.60
2023-06-11T12:16:27.322Z,16.51
2023-06-11T12:19:06.842Z,16.34
2023-06-11T12:21:42.430Z,16.41
2023-06-11T12:24:13.109Z,16.23
2023-06-11T12:26:41.724Z,16.18
2023-06-11T12:29:11.279Z,15.68
2023-06-11T12:31:39.988Z,15.68
2023-06-11T12:34:07.955Z,15.66
2023-06-11T12:36:35.931Z,15.27
2023-06-11T12:39:05.548Z,15.12
2023-06-11T12:41:33.169Z,14.96
2023-06-11T12:44:00.753Z,14.96
2023-06-11T12:46:28.327Z,14.67
2023-06-11T12:48:55.944Z,14.60
2023-06-11T12:51:23.751Z,14.36
2023-06-11T12:53:53.497Z,14.36
2023-06-11T12:56:24.110Z,14.18
2023-06-11T12:58:51.750Z,14.04
2023-06-11T13:01:19.832Z,13.84
2023-06-11T13:03:47.749Z,13.64
2023-06-11T13:06:15.326Z,13.73
2023-06-11T13:08:42.948Z,13.49
2023-06-11T13:11:10.536Z,13.14
2023-06-11T13:13:38.183Z,12.95
2023-06-11T13:16:07.833Z,12.80
2023-06-11T13:18:35.561Z,12.75
2023-06-11T13:21:03.597Z,12.62
2023-06-11T13:23:32.583Z,12.44
2023-06-11T13:26:01.757Z,12.45
2023-06-11T13:28:29.965Z,12.19
2023-06-11T13:30:59.565Z,11.97
2023-06-11T13:33:27.378Z,11.81
2023-06-11T13:35:55.120Z,11.58
2023-06-11T13:38:23.443Z,11.53
2023-06-11T13:40:52.697Z,11.46
2023-06-11T13:43:20.486Z,11.26
2023-06-11T13:45:49.403Z,11.03
2023-06-11T13:48:21.704Z,10.90
2023-06-11T13:50:51.387Z,10.80
2023-06-11T13:53:20.486Z,10.68
2023-06-11T13:55:49.089Z,10.50
2023-06-11T13:58:17.177Z,10.38
2023-06-11T14:00:44.976Z,10.21
2023-06-11T14:03:12.900Z,10.23
2023-06-11T14:05:40.654Z,10.10
2023-06-11T14:08:09.558Z,9.87
2023-06-11T14:10:37.113Z,9.64
2023-06-11T14:13:04.599Z,9.61
2023-06-11T14:15:32.199Z,9.58
2023-06-11T14:17:59.786Z,9.53
2023-06-11T14:20:27.471Z,9.43
2023-06-11T14:22:55.217Z,9.32
2023-06-11T14:25:22.829Z,9.12
2023-06-11T14:27:50.441Z,9.10
2023-06-11T14:30:18.874Z,9.12
2023-06-11T14:32:46.574Z,8.94
2023-06-11T14:35:15.928Z,8.73
2023-06-11T14:37:43.620Z,8.82
2023-06-11T14:40:12.025Z,8.53
2023-06-11T14:42:40.214Z,8.53
2023-06-11T14:45:08.493Z,8.58
2023-06-11T14:47:38.320Z,8.38
2023-06-11T14:50:06.360Z,8.39
2023-06-11T14:52:34.069Z,8.08
2023-06-11T14:55:01.801Z,8.13
2023-06-11T14:57:29.421Z,7.94
2023-06-11T14:59:57.083Z,8.01
2023-06-11T15:02:24.718Z,7.94
2023-06-11T15:04:52.771Z,7.63
2023-06-11T15:07:33.712Z,7.85
2023-06-11T15:10:05.395Z,7.63
2023-06-11T15:12:33.474Z,7.59
2023-06-11T15:15:01.785Z,7.41
2023-06-11T15:17:32.878Z,7.22
2023-06-11T15:20:01.389Z,7.15
2023-06-11T15:22:29.111Z,7.18
2023-06-11T15:24:56.778Z,7.29
2023-06-11T15:27:24.303Z,7.35
2023-06-11T15:29:51.821Z,6.96
2023-06-11T15:32:20.890Z,7.06
2023-06-11T15:34:48.744Z,6.96
2023-06-11T15:37:17.681Z,7.03
2023-06-11T15:39:51.353Z,6.96
2023-06-11T15:42:19.846Z,6.93
2023-06-11T15:44:49.947Z,6.78
2023-06-11T15:47:18.494Z,6.96
2023-06-11T15:49:46.405Z,6.82
2023-06-11T15:52:14.211Z,6.81
2023-06-11T15:54:41.935Z,6.51
2023-06-11T15:57:09.999Z,6.43
2023-06-11T15:59:37.609Z,6.47
2023-06-11T16:02:05.640Z,6.47
2023-06-11T16:04:33.476Z,6.52
2023-06-11T16:07:01.525Z,6.49
2023-06-11T16:09:29.451Z,6.45
2023-06-11T16:11:57.022Z,6.43
2023-06-11T16:14:24.633Z,6.53
2023-06-11T16:16:52.120Z,6.26
2023-06-11T16:19:19.723Z,6.40
2023-06-11T16:21:48.052Z,6.24
2023-06-11T16:24:15.617Z,6.27
2023-06-11T16:26:43.414Z,6.24
2023-06-11T16:29:10.920Z,6.16
2023-06-11T16:31:41.799Z,6.22
2023-06-11T16:34:11.104Z,6.21
2023-06-11T16:36:39.729Z,6.21
2023-06-11T16:39:25.593Z,6.14
2023-06-11T16:41:54.767Z,6.23
2023-06-11T16:44:22.540Z,6.07
2023-06-11T16:46:51.362Z,6.14
2023-06-11T16:49:19.227Z,6.16
2023-06-11T16:51:46.873Z,6.20
2023-06-11T16:54:17.461Z,6.04
2023-06-11T16:56:46.518Z,6.00
2023-06-11T16:59:14.219Z,6.03
2023-06-11T17:01:42.842Z,6.16
2023-06-11T17:04:10.431Z,6.24
2023-06-11T17:06:37.995Z,6.57
2023-06-11T17:09:05.595Z,6.60
2023-06-11T17:11:33.151Z,6.98
2023-06-11T17:14:00.893Z,7.18
2023-06-11T17:16:28.614Z,7.38
2023-06-11T17:18:56.239Z,7.65
2023-06-11T17:21:23.745Z,7.82
2023-06-11T17:23:51.266Z,7.99
2023-06-11T17:26:18.974Z,8.25
2023-06-11T17:28:46.770Z,8.47
2023-06-11T17:31:14.329Z,8.75
2023-06-11T17:33:41.959Z,8.99
2023-06-11T17:36:09.683Z,9.17
2023-06-11T17:38:37.191Z,9.34
2023-06-11T17:41:04.680Z,9.53
2023-06-11T17:43:33.117Z,9.88
2023-06-11T17:46:04.153Z,10.04
2023-06-11T17:48:32.383Z,10.24
2023-06-11T17:51:00.003Z,10.37
2023-06-11T17:53:27.711Z,10.52
2023-06-11T17:55:55.316Z,10.71
2023-06-11T17:58:22.931Z,10.73
2023-06-11T18:00:51.135Z,11.00
2023-06-11T18:03:18.776Z,11.02
2023-06-11T18:05:46.505Z,11.22
2023-06-11T18:08:14.229Z,11.37
2023-06-11T18:10:42.659Z,11.50
2023-06-11T18:13:10.322Z,11.65
2023-06-11T18:15:41.136Z,11.90
2023-06-11T18:18:09.850Z,11.84
2023-06-11T18:20:37.736Z,12.08
2023-06-11T18:23:05.863Z,12.18
2023-06-11T18:25:33.517Z,12.38
2023-06-11T18:28:01.388Z,12.58
2023-06-11T18:30:29.406Z,12.59
2023-06-11T18:32:57.180Z,12.77
2023-06-11T18:35:24.831Z,12.85
2023-06-11T18:37:52.791Z,13.08
2023-06-11T18:40:20.560Z,13.21
2023-06-11T18:42:49.223Z,13.32
2023-06-11T18:45:17.151Z,13.42
2023-06-11T18:47:45.564Z,13.66
2023-06-11T18:50:14.191Z,13.73
2023-06-11T18:52:42.101Z,13.95
2023-06-11T18:55:10.781Z,13.99
2023-06-11T18:57:38.673Z,14.05
2023-06-11T19:00:08.107Z,14.36
2023-06-11T19:02:35.800Z,14.33
2023-06-11T19:05:03.786Z,14.54
2023-06-11T19:07:32.903Z,14.66
2023-06-11T19:10:00.919Z,14.75
2023-06-11T19:12:28.837Z,14.90
2023-06-11T19:14:58.334Z,15.08
2023-06-11T19:17:25.947Z,15.22
2023-06-11T19:19:54.943Z,15.38
2023-06-11T19:22:22.617Z,15.47
2023-06-11T19:24:50.517Z,15.85
2023-06-11T19:27:19.268Z,16.00
2023-06-11T19:29:46.937Z,15.97
2023-06-11T19:32:14.571Z,16.07
2023-06-11T19:34:42.932Z,16.29
2023-06-11T19:37:10.568Z,16.54
2023-06-11T19:39:38.205Z,16.80
2023-06-11T19:42:06.258Z,17.05
2023-06-11T19:44:34.020Z,17.40
2023-06-11T19:47:02.549Z,17.60
2023-06-11T19:49:30.350Z,17.92
2023-06-11T19:51:58.719Z,17.99
2023-06-11T19:54:45.935Z,18.20
2023-06-11T19:57:18.597Z,18.36
2023-06-11T19:59:48.771Z,18.53
2023-06-11T20:02:16.820Z,18.67
2023-06-11T20:04:44.722Z,18.77
2023-06-11T20:07:16.636Z,18.90
2023-06-11T20:09:46.314Z,19.06
2023-06-11T20:12:14.212Z,19.11
2023-06-11T20:14:42.606Z,19.16
2023-06-11T20:17:10.414Z,19.48
2023-06-11T20:19:38.153Z,19.76
2023-06-11T20:22:07.123Z,19.89
2023-06-11T20:24:34.877Z,20.05
2023-06-11T20:27:02.751Z,20.13
2023-06-11T20:29:31.476Z,20.09
2023-06-11T20:32:00.384Z,20.24
2023-06-11T20:34:28.446Z,20.23
2023-06-11T20:36:56.297Z,20.40
2023-06-11T20:39:23.791Z,20.99
2023-06-11T20:41:51.323Z,21.33
2023-06-11T20:44:20.250Z,21.36
2023-06-11T20:46:47.858Z,21.50
2023-06-11T20:49:15.441Z,21.28
2023-06-11T20:51:42.972Z,21.50
2023-06-11T20:54:13.415Z,21.97
2023-06-11T20:56:41.136Z,21.78
2023-06-11T20:59:10.819Z,21.57
2023-06-11T21:01:39.223Z,21.51
2023-06-11T21:04:07.271Z,21.54
2023-06-11T21:06:40.364Z,21.55
2023-06-11T21:09:08.580Z,21.59
2023-06-11T21:11:36.141Z,21.71
2023-06-11T21:14:13.530Z,22.03
2023-06-11T21:16:42.874Z,22.02
2023-06-11T21:19:10.681Z,22.23
2023-06-11T21:21:38.295Z,22.44
2023-06-11T21:24:06.321Z,22.32
2023-06-11T21:26:34.207Z,22.50
2023-06-11T21:29:01.884Z,22.39
2023-06-11T21:31:29.597Z,22.71
2023-06-11T21:33:59.107Z,23.22
2023-06-11T21:36:27.633Z,23.37
2023-06-11T21:38:56.376Z,23.23
2023-06-11T21:41:23.921Z,23.15
2023-06-11T21:43:51.554Z,23.16
2023-06-11T21:46:19.510Z,23.37
2023-06-11T21:48:47.331Z,23.43
2023-06-11T21:51:15.083Z,23.67
2023-06-11T21:53:42.566Z,24.05
2023-06-11T21:56:10.289Z,24.39
2023-06-11T21:58:37.849Z,24.38
2023-06-11T22:01:05.785Z,24.63
2023-06-11T22:03:33.386Z,24.45
2023-06-11T22:06:04.112Z,24.65
2023-06-11T22:08:31.792Z,24.70
2023-06-11T22:10:59.323Z,25.05
2023-06-11T22:13:31.117Z,25.35
2023-06-11T22:15:58.629Z,25.68
2023-06-11T22:18:29.168Z,25.88
2023-06-11T22:20:58.021Z,25.95
2023-06-11T22:23:37.212Z,26.05
2023-06-11T22:26:13.638Z,26.28
2023-06-11T22:28:41.230Z,26.15
2023-06-11T22:31:08.882Z,26.40
2023-06-11T22:33:36.613Z,26.54
2023-06-11T22:36:04.556Z,26.62
2023-06-11T22:38:32.051Z,26.62
2023-06-11T22:40:59.741Z,26.71
2023-06-11T22:43:27.613Z,26.81
2023-06-11T22:45:55.183Z,27.01
2023-06-11T22:48:22.735Z,27.06
2023-06-11T22:50:50.436Z,27.15
2023-06-11T22:53:18.014Z,27.12
2023-06-11T22:55:45.617Z,27.24
2023-06-11T22:58:13.218Z,27.28
2023-06-11T23:00:41.115Z,27.38
2023-06-11T23:03:10.772Z,27.43
2023-06-11T23:05:38.572Z,27.53
2023-06-11T23:08:06.639Z,27.67
2023-06-11T23:10:34.214Z,27.78
2023-06-11T23:13:01.824Z,27.91
2023-06-11T23:15:29.477Z,28.21
2023-06-11T23:17:57.215Z,28.26
2023-06-11T23:20:27.283Z,28.24
2023-06-11T23:22:59.552Z,28.38
2023-06-11T23:25:27.585Z,28.49
2023-06-11T23:27:55.538Z,28.69
2023-06-11T23:30:23.309Z,28.62
2023-06-11T23:32:52.117Z,28.70
2023-06-11T23:35:19.949Z,28.77
2023-06-11T23:37:52.922Z,28.92
2023-06-11T23:40:21.031Z,28.93
2023-06-11T23:42:48.673Z,28.88
2023-06-11T23:45:16.494Z,29.00
2023-06-11T23:47:44.156Z,29.04
2023-06-11T23:50:12.248Z,29.23
2023-06-11T23:52:40.172Z,29.25
2023-06-11T23:55:08.278Z,29.22
2023-06-11T23:57:38.503Z,29.38
